sensor_id;sensor_type;location;lat;lon;timestamp;P1;durP1;ratioP1;P2;durP2;ratioP2
34573;SDS011;20809;49.594;8.734;2023-08-08T00:02:08;2.10;;;1.90;;
34573;SDS011;20809;49.594;8.734;2023-08-08T00:05:13;5.57;;;2.30;;
34573;SDS011;20809;49.594;8.734;2023-08-08T00:08:14;2.92;;;2.42;;
34573;SDS011;20809;49.594;8.734;2023-08-08T00:11:17;5.03;;;2.10;;
34573;SDS011;20809;49.594;8.734;2023-08-08T00:14:19;3.95;;;2.55;;
34573;SDS011;20809;49.594;8.734;2023-08-08T00:17:21;4.22;;;2.25;;
34573;SDS011;20809;49.594;8.734;2023-08-08T00:20:24;5.93;;;2.40;;
34573;SDS011;20809;49.594;8.734;2023-08-08T00:23:29;3.53;;;2.10;;
34573;SDS011;20809;49.594;8.734;2023-08-08T00:26:31;4.75;;;2.45;;
34573;SDS011;20809;49.594;8.734;2023-08-08T00:29:33;3.55;;;2.40;;
34573;SDS011;20809;49.594;8.734;2023-08-08T00:32:35;5.60;;;2.60;;
34573;SDS011;20809;49.594;8.734;2023-08-08T00:35:36;3.22;;;2.17;;
34573;SDS011;20809;49.594;8.734;2023-08-08T00:38:37;11.47;;;3.60;;
34573;SDS011;20809;49.594;8.734;2023-08-08T00:41:39;4.15;;;1.80;;
34573;SDS011;20809;49.594;8.734;2023-08-08T00:44:41;3.60;;;1.98;;
34573;SDS011;20809;49.594;8.734;2023-08-08T00:47:43;2.58;;;2.38;;
34573;SDS011;20809;49.594;8.734;2023-08-08T00:50:45;10.18;;;2.40;;
34573;SDS011;20809;49.594;8.734;2023-08-08T00:53:49;7.75;;;4.10;;
34573;SDS011;20809;49.594;8.734;2023-08-08T00:59:12;2.97;;;2.58;;
34573;SDS011;20809;49.594;8.734;2023-08-08T01:02:19;7.50;;;2.75;;
34573;SDS011;20809;49.594;8.734;2023-08-08T01:05:21;6.88;;;2.60;;
34573;SDS011;20809;49.594;8.734;2023-08-08T01:08:33;4.85;;;2.92;;
34573;SDS011;20809;49.594;8.734;2023-08-08T01:11:42;3.53;;;2.85;;
34573;SDS011;20809;49.594;8.734;2023-08-08T01:14:48;4.25;;;2.65;;
34573;SDS011;20809;49.594;8.734;2023-08-08T01:17:51;5.13;;;3.70;;
34573;SDS011;20809;49.594;8.734;2023-08-08T01:20:54;4.18;;;2.70;;
34573;SDS011;20809;49.594;8.734;2023-08-08T01:23:56;6.63;;;3.65;;
34573;SDS011;20809;49.594;8.734;2023-08-08T01:27:12;4.07;;;3.63;;
34573;SDS011;20809;49.594;8.734;2023-08-08T01:30:13;4.57;;;3.75;;
34573;SDS011;20809;49.594;8.734;2023-08-08T01:33:15;6.00;;;2.90;;
34573;SDS011;20809;49.594;8.734;2023-08-08T01:36:21;4.55;;;3.08;;
34573;SDS011;20809;49.594;8.734;2023-08-08T01:39:36;4.88;;;3.10;;
34573;SDS011;20809;49.594;8.734;2023-08-08T01:42:41;4.32;;;2.67;;
34573;SDS011;20809;49.594;8.734;2023-08-08T01:45:47;4.15;;;2.83;;
34573;SDS011;20809;49.594;8.734;2023-08-08T01:48:50;4.55;;;3.67;;
34573;SDS011;20809;49.594;8.734;2023-08-08T01:51:51;7.10;;;3.60;;
34573;SDS011;20809;49.594;8.734;2023-08-08T01:54:53;9.68;;;2.80;;
34573;SDS011;20809;49.594;8.734;2023-08-08T01:57:55;4.68;;;2.88;;
34573;SDS011;20809;49.594;8.734;2023-08-08T02:00:57;7.47;;;3.53;;
34573;SDS011;20809;49.594;8.734;2023-08-08T02:03:59;5.78;;;2.75;;
34573;SDS011;20809;49.594;8.734;2023-08-08T02:07:00;5.72;;;2.92;;
34573;SDS011;20809;49.594;8.734;2023-08-08T02:10:02;6.00;;;3.70;;
34573;SDS011;20809;49.594;8.734;2023-08-08T02:13:04;3.72;;;2.88;;
34573;SDS011;20809;49.594;8.734;2023-08-08T02:16:06;5.22;;;3.10;;
34573;SDS011;20809;49.594;8.734;2023-08-08T02:19:10;2.95;;;2.75;;
34573;SDS011;20809;49.594;8.734;2023-08-08T02:22:11;4.22;;;2.67;;
34573;SDS011;20809;49.594;8.734;2023-08-08T02:25:13;6.07;;;2.50;;
34573;SDS011;20809;49.594;8.734;2023-08-08T02:28:15;4.82;;;3.10;;
34573;SDS011;20809;49.594;8.734;2023-08-08T02:31:17;3.90;;;2.70;;
34573;SDS011;20809;49.594;8.734;2023-08-08T02:34:21;2.65;;;2.45;;
34573;SDS011;20809;49.594;8.734;2023-08-08T02:37:22;5.25;;;3.20;;
34573;SDS011;20809;49.594;8.734;2023-08-08T02:40:27;7.03;;;2.70;;
34573;SDS011;20809;49.594;8.734;2023-08-08T02:43:29;3.20;;;2.55;;
34573;SDS011;20809;49.594;8.734;2023-08-08T02:46:31;6.57;;;2.58;;
34573;SDS011;20809;49.594;8.734;2023-08-08T02:49:32;3.92;;;2.85;;
34573;SDS011;20809;49.594;8.734;2023-08-08T02:55:36;6.60;;;3.10;;
34573;SDS011;20809;49.594;8.734;2023-08-08T02:58:37;5.88;;;2.90;;
34573;SDS011;20809;49.594;8.734;2023-08-08T03:01:39;5.15;;;3.00;;
34573;SDS011;20809;49.594;8.734;2023-08-08T03:04:40;3.70;;;2.65;;
34573;SDS011;20809;49.594;8.734;2023-08-08T03:10:43;4.20;;;2.83;;
34573;SDS011;20809;49.594;8.734;2023-08-08T03:13:45;10.55;;;4.22;;
34573;SDS011;20809;49.594;8.734;2023-08-08T03:19:47;5.82;;;2.50;;
34573;SDS011;20809;49.594;8.734;2023-08-08T03:22:49;3.08;;;2.65;;
34573;SDS011;20809;49.594;8.734;2023-08-08T03:25:51;5.90;;;3.45;;
34573;SDS011;20809;49.594;8.734;2023-08-08T03:28:53;3.17;;;2.88;;
34573;SDS011;20809;49.594;8.734;2023-08-08T03:31:54;4.53;;;2.72;;
34573;SDS011;20809;49.594;8.734;2023-08-08T03:34:56;5.13;;;3.17;;
34573;SDS011;20809;49.594;8.734;2023-08-08T03:40:59;7.75;;;3.13;;
34573;SDS011;20809;49.594;8.734;2023-08-08T03:44:00;9.02;;;3.00;;
34573;SDS011;20809;49.594;8.734;2023-08-08T03:47:02;3.38;;;3.05;;
34573;SDS011;20809;49.594;8.734;2023-08-08T03:53:05;5.93;;;2.70;;
34573;SDS011;20809;49.594;8.734;2023-08-08T03:56:07;5.55;;;3.08;;
34573;SDS011;20809;49.594;8.734;2023-08-08T03:59:08;5.45;;;3.03;;
34573;SDS011;20809;49.594;8.734;2023-08-08T04:02:10;7.10;;;2.70;;
34573;SDS011;20809;49.594;8.734;2023-08-08T04:05:11;4.00;;;2.85;;
34573;SDS011;20809;49.594;8.734;2023-08-08T04:11:18;3.05;;;2.58;;
34573;SDS011;20809;49.594;8.734;2023-08-08T04:14:19;12.05;;;4.05;;
34573;SDS011;20809;49.594;8.734;2023-08-08T04:17:20;7.80;;;3.22;;
34573;SDS011;20809;49.594;8.734;2023-08-08T04:20:22;4.53;;;3.10;;
34573;SDS011;20809;49.594;8.734;2023-08-08T04:23:23;5.97;;;3.20;;
34573;SDS011;20809;49.594;8.734;2023-08-08T04:26:25;9.20;;;3.58;;
34573;SDS011;20809;49.594;8.734;2023-08-08T04:29:27;4.93;;;2.95;;
34573;SDS011;20809;49.594;8.734;2023-08-08T04:32:27;4.28;;;3.55;;
34573;SDS011;20809;49.594;8.734;2023-08-08T04:35:28;5.45;;;3.17;;
34573;SDS011;20809;49.594;8.734;2023-08-08T04:38:29;5.28;;;3.20;;
34573;SDS011;20809;49.594;8.734;2023-08-08T04:41:29;5.17;;;2.90;;
34573;SDS011;20809;49.594;8.734;2023-08-08T04:44:30;4.40;;;2.47;;
34573;SDS011;20809;49.594;8.734;2023-08-08T04:47:30;5.90;;;2.65;;
34573;SDS011;20809;49.594;8.734;2023-08-08T04:50:31;8.10;;;3.17;;
34573;SDS011;20809;49.594;8.734;2023-08-08T04:53:31;8.93;;;2.50;;
34573;SDS011;20809;49.594;8.734;2023-08-08T04:56:32;6.00;;;3.00;;
34573;SDS011;20809;49.594;8.734;2023-08-08T04:59:35;5.43;;;3.20;;
34573;SDS011;20809;49.594;8.734;2023-08-08T05:02:38;4.18;;;2.90;;
34573;SDS011;20809;49.594;8.734;2023-08-08T05:05:41;8.25;;;3.15;;
34573;SDS011;20809;49.594;8.734;2023-08-08T05:08:41;3.97;;;3.43;;
34573;SDS011;20809;49.594;8.734;2023-08-08T05:11:42;3.40;;;3.10;;
34573;SDS011;20809;49.594;8.734;2023-08-08T05:14:42;4.23;;;2.60;;
34573;SDS011;20809;49.594;8.734;2023-08-08T05:17:43;6.20;;;3.33;;
34573;SDS011;20809;49.594;8.734;2023-08-08T05:20:44;3.10;;;2.90;;
34573;SDS011;20809;49.594;8.734;2023-08-08T05:23:45;3.43;;;2.60;;
34573;SDS011;20809;49.594;8.734;2023-08-08T05:26:45;2.75;;;2.30;;
34573;SDS011;20809;49.594;8.734;2023-08-08T05:29:46;2.90;;;2.60;;
34573;SDS011;20809;49.594;8.734;2023-08-08T05:32:46;7.10;;;2.13;;
34573;SDS011;20809;49.594;8.734;2023-08-08T05:35:48;5.35;;;2.40;;
34573;SDS011;20809;49.594;8.734;2023-08-08T05:38:48;2.28;;;2.08;;
34573;SDS011;20809;49.594;8.734;2023-08-08T05:41:52;1.85;;;1.75;;
34573;SDS011;20809;49.594;8.734;2023-08-08T05:44:53;3.65;;;1.90;;
34573;SDS011;20809;49.594;8.734;2023-08-08T05:47:53;2.25;;;1.55;;
34573;SDS011;20809;49.594;8.734;2023-08-08T05:50:55;5.72;;;1.55;;
34573;SDS011;20809;49.594;8.734;2023-08-08T05:53:58;3.42;;;1.23;;
34573;SDS011;20809;49.594;8.734;2023-08-08T05:56:59;1.67;;;1.15;;
34573;SDS011;20809;49.594;8.734;2023-08-08T05:59:59;2.35;;;1.33;;
34573;SDS011;20809;49.594;8.734;2023-08-08T06:03:00;3.90;;;1.30;;
34573;SDS011;20809;49.594;8.734;2023-08-08T06:09:02;4.13;;;1.37;;
34573;SDS011;20809;49.594;8.734;2023-08-08T06:12:03;2.85;;;1.45;;
34573;SDS011;20809;49.594;8.734;2023-08-08T06:18:04;1.63;;;0.95;;
34573;SDS011;20809;49.594;8.734;2023-08-08T06:21:05;4.32;;;1.23;;
34573;SDS011;20809;49.594;8.734;2023-08-08T06:24:06;1.40;;;1.10;;
34573;SDS011;20809;49.594;8.734;2023-08-08T06:27:06;3.63;;;1.40;;
34573;SDS011;20809;49.594;8.734;2023-08-08T06:30:26;4.25;;;1.17;;
34573;SDS011;20809;49.594;8.734;2023-08-08T06:33:26;3.25;;;1.30;;
34573;SDS011;20809;49.594;8.734;2023-08-08T06:36:27;2.05;;;1.20;;
34573;SDS011;20809;49.594;8.734;2023-08-08T06:39:28;3.00;;;1.15;;
34573;SDS011;20809;49.594;8.734;2023-08-08T06:42:28;2.67;;;1.42;;
34573;SDS011;20809;49.594;8.734;2023-08-08T06:48:29;1.03;;;0.83;;
34573;SDS011;20809;49.594;8.734;2023-08-08T06:54:31;2.27;;;1.37;;
34573;SDS011;20809;49.594;8.734;2023-08-08T06:57:32;1.83;;;1.35;;
34573;SDS011;20809;49.594;8.734;2023-08-08T07:00:34;1.35;;;1.25;;
34573;SDS011;20809;49.594;8.734;2023-08-08T07:06:35;3.97;;;1.20;;
34573;SDS011;20809;49.594;8.734;2023-08-08T07:09:36;2.63;;;1.30;;
34573;SDS011;20809;49.594;8.734;2023-08-08T07:12:37;1.58;;;1.10;;
34573;SDS011;20809;49.594;8.734;2023-08-08T07:15:38;1.77;;;1.13;;
34573;SDS011;20809;49.594;8.734;2023-08-08T07:18:41;1.98;;;1.20;;
34573;SDS011;20809;49.594;8.734;2023-08-08T07:21:42;2.65;;;1.40;;
34573;SDS011;20809;49.594;8.734;2023-08-08T07:24:42;2.13;;;1.10;;
34573;SDS011;20809;49.594;8.734;2023-08-08T07:27:43;2.42;;;1.23;;
34573;SDS011;20809;49.594;8.734;2023-08-08T07:30:44;5.85;;;1.73;;
34573;SDS011;20809;49.594;8.734;2023-08-08T07:33:45;3.50;;;1.50;;
34573;SDS011;20809;49.594;8.734;2023-08-08T07:36:46;1.23;;;1.10;;
34573;SDS011;20809;49.594;8.734;2023-08-08T07:42:51;10.10;;;1.58;;
34573;SDS011;20809;49.594;8.734;2023-08-08T07:45:51;3.67;;;1.38;;
34573;SDS011;20809;49.594;8.734;2023-08-08T07:48:52;1.50;;;1.38;;
34573;SDS011;20809;49.594;8.734;2023-08-08T07:51:52;6.47;;;1.45;;
34573;SDS011;20809;49.594;8.734;2023-08-08T07:54:53;1.85;;;1.20;;
34573;SDS011;20809;49.594;8.734;2023-08-08T07:57:54;2.97;;;1.30;;
34573;SDS011;20809;49.594;8.734;2023-08-08T08:00:54;1.48;;;1.23;;
34573;SDS011;20809;49.594;8.734;2023-08-08T08:03:55;1.65;;;1.10;;
34573;SDS011;20809;49.594;8.734;2023-08-08T08:06:56;3.17;;;1.10;;
34573;SDS011;20809;49.594;8.734;2023-08-08T08:09:57;2.75;;;1.40;;
34573;SDS011;20809;49.594;8.734;2023-08-08T08:12:57;4.07;;;1.77;;
34573;SDS011;20809;49.594;8.734;2023-08-08T08:15:58;3.63;;;1.48;;
34573;SDS011;20809;49.594;8.734;2023-08-08T08:18:58;2.65;;;1.48;;
34573;SDS011;20809;49.594;8.734;2023-08-08T08:21:59;3.60;;;1.13;;
34573;SDS011;20809;49.594;8.734;2023-08-08T08:25:00;2.22;;;1.23;;
34573;SDS011;20809;49.594;8.734;2023-08-08T08:28:00;2.78;;;0.88;;
34573;SDS011;20809;49.594;8.734;2023-08-08T08:31:04;1.35;;;1.08;;
34573;SDS011;20809;49.594;8.734;2023-08-08T08:34:06;2.90;;;0.93;;
34573;SDS011;20809;49.594;8.734;2023-08-08T08:37:06;2.47;;;1.00;;
34573;SDS011;20809;49.594;8.734;2023-08-08T08:40:07;1.42;;;1.05;;
34573;SDS011;20809;49.594;8.734;2023-08-08T08:43:09;2.17;;;1.60;;
34573;SDS011;20809;49.594;8.734;2023-08-08T08:46:10;1.92;;;1.08;;
34573;SDS011;20809;49.594;8.734;2023-08-08T08:49:11;2.22;;;1.40;;
34573;SDS011;20809;49.594;8.734;2023-08-08T08:55:13;2.13;;;1.00;;
34573;SDS011;20809;49.594;8.734;2023-08-08T08:58:14;3.42;;;0.90;;
34573;SDS011;20809;49.594;8.734;2023-08-08T09:01:16;2.70;;;1.15;;
34573;SDS011;20809;49.594;8.734;2023-08-08T09:04:19;4.43;;;1.33;;
34573;SDS011;20809;49.594;8.734;2023-08-08T09:07:22;3.97;;;1.15;;
34573;SDS011;20809;49.594;8.734;2023-08-08T09:10:26;2.67;;;1.00;;
34573;SDS011;20809;49.594;8.734;2023-08-08T09:13:40;1.40;;;1.02;;
34573;SDS011;20809;49.594;8.734;2023-08-08T09:16:41;1.90;;;1.30;;
34573;SDS011;20809;49.594;8.734;2023-08-08T09:19:43;2.17;;;1.00;;
34573;SDS011;20809;49.594;8.734;2023-08-08T09:22:45;2.38;;;1.00;;
34573;SDS011;20809;49.594;8.734;2023-08-08T09:25:45;1.48;;;0.85;;
34573;SDS011;20809;49.594;8.734;2023-08-08T09:28:46;4.47;;;0.98;;
34573;SDS011;20809;49.594;8.734;2023-08-08T09:31:47;1.50;;;1.10;;
34573;SDS011;20809;49.594;8.734;2023-08-08T09:34:48;1.20;;;1.05;;
34573;SDS011;20809;49.594;8.734;2023-08-08T09:37:48;1.48;;;0.82;;
34573;SDS011;20809;49.594;8.734;2023-08-08T09:40:49;4.55;;;0.90;;
34573;SDS011;20809;49.594;8.734;2023-08-08T09:43:51;2.38;;;1.05;;
34573;SDS011;20809;49.594;8.734;2023-08-08T09:46:52;3.90;;;1.02;;
34573;SDS011;20809;49.594;8.734;2023-08-08T09:49:53;2.80;;;0.98;;
34573;SDS011;20809;49.594;8.734;2023-08-08T09:52:57;2.47;;;0.73;;
34573;SDS011;20809;49.594;8.734;2023-08-08T09:59:00;2.35;;;0.80;;
34573;SDS011;20809;49.594;8.734;2023-08-08T10:02:01;1.42;;;0.98;;
34573;SDS011;20809;49.594;8.734;2023-08-08T10:05:05;1.65;;;1.08;;
34573;SDS011;20809;49.594;8.734;2023-08-08T10:08:06;3.30;;;1.10;;
34573;SDS011;20809;49.594;8.734;2023-08-08T10:11:07;2.17;;;1.10;;
34573;SDS011;20809;49.594;8.734;2023-08-08T10:14:10;1.85;;;1.08;;
34573;SDS011;20809;49.594;8.734;2023-08-08T10:17:14;2.80;;;1.08;;
34573;SDS011;20809;49.594;8.734;2023-08-08T10:20:15;1.45;;;0.82;;
34573;SDS011;20809;49.594;8.734;2023-08-08T10:23:19;3.40;;;1.23;;
34573;SDS011;20809;49.594;8.734;2023-08-08T10:26:20;2.15;;;1.00;;
34573;SDS011;20809;49.594;8.734;2023-08-08T10:29:25;1.50;;;1.00;;
34573;SDS011;20809;49.594;8.734;2023-08-08T10:32:27;2.28;;;1.10;;
34573;SDS011;20809;49.594;8.734;2023-08-08T10:35:34;1.30;;;1.13;;
34573;SDS011;20809;49.594;8.734;2023-08-08T10:38:38;4.25;;;0.98;;
34573;SDS011;20809;49.594;8.734;2023-08-08T10:41:47;3.13;;;1.10;;
34573;SDS011;20809;49.594;8.734;2023-08-08T10:44:52;1.50;;;1.10;;
34573;SDS011;20809;49.594;8.734;2023-08-08T10:48:07;2.35;;;1.00;;
34573;SDS011;20809;49.594;8.734;2023-08-08T10:51:08;2.65;;;1.13;;
34573;SDS011;20809;49.594;8.734;2023-08-08T10:54:12;1.48;;;0.90;;
34573;SDS011;20809;49.594;8.734;2023-08-08T10:57:15;1.23;;;1.10;;
34573;SDS011;20809;49.594;8.734;2023-08-08T11:00:17;3.25;;;1.05;;
34573;SDS011;20809;49.594;8.734;2023-08-08T11:03:18;2.08;;;1.00;;
34573;SDS011;20809;49.594;8.734;2023-08-08T11:06:20;1.20;;;1.05;;
34573;SDS011;20809;49.594;8.734;2023-08-08T11:09:21;1.92;;;1.20;;
34573;SDS011;20809;49.594;8.734;2023-08-08T11:12:22;3.00;;;1.25;;
34573;SDS011;20809;49.594;8.734;2023-08-08T11:15:26;1.90;;;1.00;;
34573;SDS011;20809;49.594;8.734;2023-08-08T11:21:34;2.28;;;1.20;;
34573;SDS011;20809;49.594;8.734;2023-08-08T11:24:36;2.38;;;1.02;;
34573;SDS011;20809;49.594;8.734;2023-08-08T11:27:37;1.48;;;1.10;;
34573;SDS011;20809;49.594;8.734;2023-08-08T11:33:39;4.53;;;1.20;;
34573;SDS011;20809;49.594;8.734;2023-08-08T11:36:40;1.40;;;1.15;;
34573;SDS011;20809;49.594;8.734;2023-08-08T11:42:42;2.47;;;1.50;;
34573;SDS011;20809;49.594;8.734;2023-08-08T11:45:44;2.95;;;1.10;;
34573;SDS011;20809;49.594;8.734;2023-08-08T11:51:46;1.52;;;1.10;;
34573;SDS011;20809;49.594;8.734;2023-08-08T11:57:54;1.23;;;1.13;;
34573;SDS011;20809;49.594;8.734;2023-08-08T12:00:57;2.72;;;1.35;;
34573;SDS011;20809;49.594;8.734;2023-08-08T12:07:02;1.58;;;1.27;;
34573;SDS011;20809;49.594;8.734;2023-08-08T12:10:03;1.85;;;1.33;;
34573;SDS011;20809;49.594;8.734;2023-08-08T12:13:05;2.25;;;1.10;;
34573;SDS011;20809;49.594;8.734;2023-08-08T12:16:09;3.55;;;1.60;;
34573;SDS011;20809;49.594;8.734;2023-08-08T12:19:11;3.42;;;1.27;;
34573;SDS011;20809;49.594;8.734;2023-08-08T12:22:14;1.38;;;0.98;;
34573;SDS011;20809;49.594;8.734;2023-08-08T12:28:15;3.00;;;1.17;;
34573;SDS011;20809;49.594;8.734;2023-08-08T12:34:16;2.13;;;1.00;;
34573;SDS011;20809;49.594;8.734;2023-08-08T12:40:19;1.77;;;1.03;;
34573;SDS011;20809;49.594;8.734;2023-08-08T12:43:19;1.67;;;1.10;;
34573;SDS011;20809;49.594;8.734;2023-08-08T12:49:20;1.53;;;0.90;;
34573;SDS011;20809;49.594;8.734;2023-08-08T12:55:22;2.67;;;0.93;;
34573;SDS011;20809;49.594;8.734;2023-08-08T12:58:23;2.50;;;0.95;;
34573;SDS011;20809;49.594;8.734;2023-08-08T13:04:25;4.03;;;1.13;;
34573;SDS011;20809;49.594;8.734;2023-08-08T13:07:25;2.55;;;1.40;;
34573;SDS011;20809;49.594;8.734;2023-08-08T13:13:27;2.47;;;1.20;;
34573;SDS011;20809;49.594;8.734;2023-08-08T13:19:28;3.60;;;1.60;;
34573;SDS011;20809;49.594;8.734;2023-08-08T13:25:29;3.17;;;1.10;;
34573;SDS011;20809;49.594;8.734;2023-08-08T13:28:31;1.42;;;0.90;;
34573;SDS011;20809;49.594;8.734;2023-08-08T13:34:32;3.77;;;1.00;;
34573;SDS011;20809;49.594;8.734;2023-08-08T13:40:34;1.20;;;0.83;;
34573;SDS011;20809;49.594;8.734;2023-08-08T13:46:35;1.53;;;1.30;;
34573;SDS011;20809;49.594;8.734;2023-08-08T13:49:36;2.72;;;0.98;;
34573;SDS011;20809;49.594;8.734;2023-08-08T13:55:37;2.03;;;1.60;;
34573;SDS011;20809;49.594;8.734;2023-08-08T13:58:40;2.22;;;1.05;;
34573;SDS011;20809;49.594;8.734;2023-08-08T14:04:41;1.10;;;0.83;;
34573;SDS011;20809;49.594;8.734;2023-08-08T14:10:42;1.17;;;0.80;;
34573;SDS011;20809;49.594;8.734;2023-08-08T14:16:43;3.00;;;1.17;;
34573;SDS011;20809;49.594;8.734;2023-08-08T14:22:45;1.80;;;1.03;;
34573;SDS011;20809;49.594;8.734;2023-08-08T14:25:49;3.95;;;1.10;;
34573;SDS011;20809;49.594;8.734;2023-08-08T14:28:50;1.58;;;0.95;;
34573;SDS011;20809;49.594;8.734;2023-08-08T14:31:50;6.38;;;1.70;;
34573;SDS011;20809;49.594;8.734;2023-08-08T14:34:51;1.45;;;1.00;;
34573;SDS011;20809;49.594;8.734;2023-08-08T14:40:52;5.33;;;1.50;;
34573;SDS011;20809;49.594;8.734;2023-08-08T14:43:53;2.40;;;0.88;;
34573;SDS011;20809;49.594;8.734;2023-08-08T14:46:54;1.98;;;0.80;;
34573;SDS011;20809;49.594;8.734;2023-08-08T14:49:55;1.10;;;0.80;;
34573;SDS011;20809;49.594;8.734;2023-08-08T14:52:55;5.05;;;1.13;;
34573;SDS011;20809;49.594;8.734;2023-08-08T14:55:56;1.20;;;0.82;;
34573;SDS011;20809;49.594;8.734;2023-08-08T14:58:57;3.05;;;1.00;;
34573;SDS011;20809;49.594;8.734;2023-08-08T15:01:57;1.35;;;0.90;;
34573;SDS011;20809;49.594;8.734;2023-08-08T15:04:58;1.77;;;1.02;;
34573;SDS011;20809;49.594;8.734;2023-08-08T15:07:58;3.92;;;0.90;;
34573;SDS011;20809;49.594;8.734;2023-08-08T15:10:59;6.03;;;1.45;;
34573;SDS011;20809;49.594;8.734;2023-08-08T15:14:00;1.13;;;0.80;;
34573;SDS011;20809;49.594;8.734;2023-08-08T15:17:00;4.40;;;1.00;;
34573;SDS011;20809;49.594;8.734;2023-08-08T15:20:01;0.73;;;0.60;;
34573;SDS011;20809;49.594;8.734;2023-08-08T15:23:02;4.68;;;1.08;;
34573;SDS011;20809;49.594;8.734;2023-08-08T15:26:03;1.75;;;0.80;;
34573;SDS011;20809;49.594;8.734;2023-08-08T15:29:03;1.20;;;0.95;;
34573;SDS011;20809;49.594;8.734;2023-08-08T15:32:04;1.65;;;0.65;;
34573;SDS011;20809;49.594;8.734;2023-08-08T15:35:05;0.77;;;0.70;;
34573;SDS011;20809;49.594;8.734;2023-08-08T15:38:08;4.20;;;1.00;;
34573;SDS011;20809;49.594;8.734;2023-08-08T15:41:09;1.13;;;0.80;;
34573;SDS011;20809;49.594;8.734;2023-08-08T15:44:10;2.55;;;0.80;;
34573;SDS011;20809;49.594;8.734;2023-08-08T15:47:11;3.10;;;1.00;;
34573;SDS011;20809;49.594;8.734;2023-08-08T15:53:13;1.97;;;1.00;;
34573;SDS011;20809;49.594;8.734;2023-08-08T15:56:13;3.17;;;0.80;;
34573;SDS011;20809;49.594;8.734;2023-08-08T15:59:14;2.90;;;1.10;;
34573;SDS011;20809;49.594;8.734;2023-08-08T16:02:14;2.50;;;0.93;;
34573;SDS011;20809;49.594;8.734;2023-08-08T16:05:15;1.95;;;0.80;;
34573;SDS011;20809;49.594;8.734;2023-08-08T16:08:16;1.55;;;0.88;;
34573;SDS011;20809;49.594;8.734;2023-08-08T16:11:17;5.80;;;1.23;;
34573;SDS011;20809;49.594;8.734;2023-08-08T16:14:18;1.60;;;1.00;;
34573;SDS011;20809;49.594;8.734;2023-08-08T16:17:19;2.50;;;0.80;;
34573;SDS011;20809;49.594;8.734;2023-08-08T16:20:20;2.53;;;1.02;;
34573;SDS011;20809;49.594;8.734;2023-08-08T16:23:22;3.50;;;1.48;;
34573;SDS011;20809;49.594;8.734;2023-08-08T16:26:23;1.92;;;1.20;;
34573;SDS011;20809;49.594;8.734;2023-08-08T16:29:24;1.50;;;1.10;;
34573;SDS011;20809;49.594;8.734;2023-08-08T16:32:25;1.55;;;0.90;;
34573;SDS011;20809;49.594;8.734;2023-08-08T16:35:25;2.50;;;0.93;;
34573;SDS011;20809;49.594;8.734;2023-08-08T16:38:26;2.35;;;1.00;;
34573;SDS011;20809;49.594;8.734;2023-08-08T16:41:27;1.30;;;0.93;;
34573;SDS011;20809;49.594;8.734;2023-08-08T16:44:28;3.63;;;1.00;;
34573;SDS011;20809;49.594;8.734;2023-08-08T16:47:29;1.60;;;0.90;;
34573;SDS011;20809;49.594;8.734;2023-08-08T16:50:29;6.38;;;3.95;;
34573;SDS011;20809;49.594;8.734;2023-08-08T16:53:30;2.42;;;1.10;;
34573;SDS011;20809;49.594;8.734;2023-08-08T16:56:31;1.50;;;0.93;;
34573;SDS011;20809;49.594;8.734;2023-08-08T16:59:31;1.45;;;1.10;;
34573;SDS011;20809;49.594;8.734;2023-08-08T17:02:32;1.85;;;1.08;;
34573;SDS011;20809;49.594;8.734;2023-08-08T17:05:33;3.17;;;1.10;;
34573;SDS011;20809;49.594;8.734;2023-08-08T17:08:34;1.30;;;1.08;;
34573;SDS011;20809;49.594;8.734;2023-08-08T17:11:35;3.15;;;1.55;;
34573;SDS011;20809;49.594;8.734;2023-08-08T17:14:37;2.20;;;1.30;;
34573;SDS011;20809;49.594;8.734;2023-08-08T17:17:38;2.50;;;1.33;;
34573;SDS011;20809;49.594;8.734;2023-08-08T17:20:42;2.75;;;1.25;;
34573;SDS011;20809;49.594;8.734;2023-08-08T17:23:43;2.60;;;1.05;;
34573;SDS011;20809;49.594;8.734;2023-08-08T17:26:43;1.20;;;0.93;;
34573;SDS011;20809;49.594;8.734;2023-08-08T17:29:44;2.13;;;1.00;;
34573;SDS011;20809;49.594;8.734;2023-08-08T17:32:45;2.95;;;1.08;;
34573;SDS011;20809;49.594;8.734;2023-08-08T17:35:45;3.25;;;1.35;;
34573;SDS011;20809;49.594;8.734;2023-08-08T17:38:46;4.18;;;0.90;;
34573;SDS011;20809;49.594;8.734;2023-08-08T17:41:47;3.17;;;1.10;;
34573;SDS011;20809;49.594;8.734;2023-08-08T17:44:47;3.75;;;1.40;;
34573;SDS011;20809;49.594;8.734;2023-08-08T17:47:48;4.63;;;1.30;;
34573;SDS011;20809;49.594;8.734;2023-08-08T17:50:49;4.10;;;3.13;;
34573;SDS011;20809;49.594;8.734;2023-08-08T17:53:49;1.88;;;1.30;;
34573;SDS011;20809;49.594;8.734;2023-08-08T17:56:50;1.38;;;0.98;;
34573;SDS011;20809;49.594;8.734;2023-08-08T17:59:51;4.22;;;1.33;;
34573;SDS011;20809;49.594;8.734;2023-08-08T18:02:51;4.03;;;1.33;;
34573;SDS011;20809;49.594;8.734;2023-08-08T18:05:52;3.50;;;1.67;;
34573;SDS011;20809;49.594;8.734;2023-08-08T18:08:53;3.70;;;1.77;;
34573;SDS011;20809;49.594;8.734;2023-08-08T18:11:54;2.38;;;1.30;;
34573;SDS011;20809;49.594;8.734;2023-08-08T18:14:55;3.40;;;1.83;;
34573;SDS011;20809;49.594;8.734;2023-08-08T18:17:55;1.67;;;1.35;;
34573;SDS011;20809;49.594;8.734;2023-08-08T18:20:56;1.40;;;1.00;;
34573;SDS011;20809;49.594;8.734;2023-08-08T18:23:57;4.35;;;3.22;;
34573;SDS011;20809;49.594;8.734;2023-08-08T18:29:59;5.37;;;1.40;;
34573;SDS011;20809;49.594;8.734;2023-08-08T18:33:00;4.88;;;1.35;;
34573;SDS011;20809;49.594;8.734;2023-08-08T18:36:00;2.35;;;1.45;;
34573;SDS011;20809;49.594;8.734;2023-08-08T18:39:04;2.90;;;1.70;;
34573;SDS011;20809;49.594;8.734;2023-08-08T18:42:06;5.07;;;1.80;;
34573;SDS011;20809;49.594;8.734;2023-08-08T18:45:09;2.05;;;1.30;;
34573;SDS011;20809;49.594;8.734;2023-08-08T18:48:11;4.20;;;1.50;;
34573;SDS011;20809;49.594;8.734;2023-08-08T18:51:16;3.05;;;1.40;;
34573;SDS011;20809;49.594;8.734;2023-08-08T18:54:18;3.10;;;1.30;;
34573;SDS011;20809;49.594;8.734;2023-08-08T18:57:20;2.33;;;1.35;;
34573;SDS011;20809;49.594;8.734;2023-08-08T19:00:22;2.88;;;1.85;;
34573;SDS011;20809;49.594;8.734;2023-08-08T19:03:27;3.22;;;1.20;;
34573;SDS011;20809;49.594;8.734;2023-08-08T19:06:29;1.95;;;1.20;;
34573;SDS011;20809;49.594;8.734;2023-08-08T19:09:31;5.45;;;1.52;;
34573;SDS011;20809;49.594;8.734;2023-08-08T19:12:33;5.15;;;1.52;;
34573;SDS011;20809;49.594;8.734;2023-08-08T19:15:35;4.53;;;1.85;;
34573;SDS011;20809;49.594;8.734;2023-08-08T19:18:37;3.83;;;1.40;;
34573;SDS011;20809;49.594;8.734;2023-08-08T19:21:39;4.60;;;1.30;;
34573;SDS011;20809;49.594;8.734;2023-08-08T19:24:41;4.15;;;1.40;;
34573;SDS011;20809;49.594;8.734;2023-08-08T19:27:42;3.67;;;1.40;;
34573;SDS011;20809;49.594;8.734;2023-08-08T19:30:45;2.92;;;1.40;;
34573;SDS011;20809;49.594;8.734;2023-08-08T19:33:48;3.40;;;1.08;;
34573;SDS011;20809;49.594;8.734;2023-08-08T19:36:50;2.83;;;1.55;;
34573;SDS011;20809;49.594;8.734;2023-08-08T19:39:52;6.05;;;2.10;;
34573;SDS011;20809;49.594;8.734;2023-08-08T19:42:54;2.95;;;1.52;;
34573;SDS011;20809;49.594;8.734;2023-08-08T19:45:57;2.35;;;1.30;;
34573;SDS011;20809;49.594;8.734;2023-08-08T19:48:59;4.53;;;1.38;;
34573;SDS011;20809;49.594;8.734;2023-08-08T19:52:01;4.55;;;1.67;;
34573;SDS011;20809;49.594;8.734;2023-08-08T19:55:04;3.90;;;1.30;;
34573;SDS011;20809;49.594;8.734;2023-08-08T19:58:08;2.78;;;1.33;;
34573;SDS011;20809;49.594;8.734;2023-08-08T20:01:10;1.38;;;1.27;;
34573;SDS011;20809;49.594;8.734;2023-08-08T20:04:12;4.07;;;1.70;;
34573;SDS011;20809;49.594;8.734;2023-08-08T20:07:13;3.10;;;1.30;;
34573;SDS011;20809;49.594;8.734;2023-08-08T20:10:15;3.20;;;1.80;;
34573;SDS011;20809;49.594;8.734;2023-08-08T20:13:18;3.53;;;1.65;;
34573;SDS011;20809;49.594;8.734;2023-08-08T20:16:20;1.73;;;1.25;;
34573;SDS011;20809;49.594;8.734;2023-08-08T20:19:25;6.53;;;1.65;;